Yale, Oklahoma
Current Conditions -  °F | °C
As of 4:55 PM on Thursday 23 Oct 2014 (Local Time) from KCUH Reporting Station
Clear Clear  
Wind Chill: 73°   Ceiling: Unl
Heat Index: 73°   Visibility: 10mi
Dew Point: 64°   Wind: 7mph
Humidity: 73%   Direction: 140°SE
Pressure: 30.06"   Gusts: NA
Location:  36.11°N, 96.7°W
Report Text: KCUH 232155Z AUTO 14006KT 10SM CLR 23/18 A3006 RMK AO2
Loading
Personal Weather Stations






























Interactive Weather Map
Tropical Storm Tracking
New forecast layout! Learn more

10-Day Weather Forecast

Advertisements
Track Severe Weather on mobile